Time;durP1;ratioP1;P1;durP2;ratioP2;P2;SDS_P1;SDS_P2;PMS_P1;PMS_P2;Temp;Humidity;BMP_temperature;BMP_pressure;BME280_temperature;BME280_humidity;BME280_pressure;Samples;Min_cycle;Max_cycle;Signal;HPM_P1;HPM_P2
2023/12/08 00:01:39;;;;;;;7.90;7.63;;;21.70;46.70;;;;;;5012255;28;20504;-66
2023/12/08 00:04:06;;;;;;;7.90;7.70;;;21.70;46.70;;;;;;5012047;28;20466;-66
2023/12/08 00:06:34;;;;;;;7.70;7.50;;;21.70;46.70;;;;;;5012202;28;20469;-66
2023/12/08 00:09:01;;;;;;;8.70;8.40;;;21.70;46.60;;;;;;5012271;28;20551;-66
2023/12/08 00:11:28;;;;;;;8.33;8.03;;;21.70;46.60;;;;;;5011862;28;20473;-66
2023/12/08 00:13:55;;;;;;;7.70;7.50;;;21.70;46.60;;;;;;5012007;28;20517;-66
2023/12/08 00:16:23;;;;;;;7.90;7.70;;;21.70;46.70;;;;;;5012256;28;20493;-66
2023/12/08 00:18:50;;;;;;;8.00;7.80;;;21.60;46.60;;;;;;5012013;28;20482;-66
2023/12/08 00:21:16;;;;;;;7.90;7.70;;;21.60;46.60;;;;;;5011883;28;20470;-66
2023/12/08 00:23:44;;;;;;;8.17;7.87;;;21.60;46.60;;;;;;5012066;28;20944;-66
2023/12/08 00:26:13;;;;;;;7.73;7.53;;;21.60;46.60;;;;;;5012096;28;20438;-66
2023/12/08 00:28:39;;;;;;;8.80;8.50;;;21.60;46.70;;;;;;5011871;28;20547;-66
2023/12/08 00:31:06;;;;;;;8.60;8.30;;;21.60;46.70;;;;;;5011680;28;20478;-66
2023/12/08 00:33:35;;;;;;;8.60;8.30;;;21.60;46.80;;;;;;5011974;28;20496;-66
2023/12/08 00:36:01;;;;;;;8.83;8.53;;;21.60;46.80;;;;;;5011872;28;20513;-66
2023/12/08 00:38:28;;;;;;;8.70;8.50;;;21.50;46.70;;;;;;5011711;28;20500;-66
2023/12/08 00:40:56;;;;;;;7.93;7.73;;;21.50;46.70;;;;;;5011648;28;20485;-66
2023/12/08 00:43:23;;;;;;;8.90;8.50;;;21.50;46.70;;;;;;5011976;28;20826;-66
2023/12/08 00:45:50;;;;;;;8.40;8.20;;;21.50;46.70;;;;;;5012044;28;20869;-66
2023/12/08 00:48:17;;;;;;;7.80;7.60;;;21.50;46.80;;;;;;5011650;28;20533;-66
2023/12/08 00:50:45;;;;;;;7.63;7.43;;;21.60;47.40;;;;;;5011564;28;21032;-66
2023/12/08 00:53:12;;;;;;;7.90;7.70;;;21.50;46.70;;;;;;5011913;28;20476;-66
2023/12/08 00:55:39;;;;;;;8.20;7.93;;;21.50;46.70;;;;;;5011672;28;20518;-66
2023/12/08 00:58:06;;;;;;;8.63;8.07;;;21.50;46.70;;;;;;5011450;28;20513;-66
2023/12/08 01:00:33;;;;;;;7.97;7.77;;;21.50;46.70;;;;;;5011636;28;20476;-66
2023/12/08 01:03:00;;;;;;;7.40;7.10;;;21.50;46.70;;;;;;5011218;28;20442;-66
2023/12/08 01:05:27;;;;;;;7.70;7.50;;;21.50;46.80;;;;;;5011722;28;20469;-66
2023/12/08 01:07:55;;;;;;;8.07;7.87;;;21.50;46.80;;;;;;5013192;28;20486;-66
2023/12/08 01:10:22;;;;;;;7.20;7.10;;;21.50;46.80;;;;;;5015253;28;20477;-66
2023/12/08 01:12:49;;;;;;;7.97;7.77;;;21.50;46.70;;;;;;5015034;28;20470;-66
2023/12/08 01:15:16;;;;;;;7.20;7.00;;;21.50;46.70;;;;;;5015182;28;20524;-66
2023/12/08 01:17:43;;;;;;;8.13;7.93;;;21.50;46.70;;;;;;5015122;28;20941;-66
2023/12/08 01:20:10;;;;;;;7.97;7.77;;;21.40;46.70;;;;;;5014908;28;20889;-66
2023/12/08 01:22:37;;;;;;;8.13;7.93;;;21.40;46.70;;;;;;5015495;28;20489;-66
2023/12/08 01:25:07;;;;;;;7.80;7.50;;;21.40;46.70;;;;;;5015290;28;20943;-67
2023/12/08 01:27:33;;;;;;;8.17;7.97;;;21.40;46.70;;;;;;5014695;28;20981;-66
2023/12/08 01:30:01;;;;;;;7.40;7.20;;;21.40;46.60;;;;;;5015009;28;21013;-66
2023/12/08 01:32:27;;;;;;;7.80;7.60;;;21.40;46.60;;;;;;5015193;28;20442;-66
2023/12/08 01:34:54;;;;;;;7.17;6.87;;;21.40;46.60;;;;;;5014877;28;20540;-66
2023/12/08 01:37:21;;;;;;;7.43;7.23;;;21.40;46.60;;;;;;5014611;28;20497;-66
2023/12/08 01:39:48;;;;;;;7.87;7.67;;;21.40;46.70;;;;;;5014728;28;20482;-66
2023/12/08 01:42:16;;;;;;;7.63;7.33;;;21.40;46.70;;;;;;5014560;28;20481;-66
2023/12/08 01:44:43;;;;;;;7.23;7.03;;;21.30;46.50;;;;;;5014923;28;20474;-66
2023/12/08 01:47:11;;;;;;;8.07;7.87;;;21.30;46.60;;;;;;5014577;28;20505;-66
2023/12/08 01:49:39;;;;;;;7.80;7.60;;;21.30;46.50;;;;;;5014443;28;20470;-66
2023/12/08 01:52:08;;;;;;;7.83;7.63;;;21.30;46.60;;;;;;5014665;28;20474;-66
2023/12/08 01:54:35;;;;;;;7.87;7.67;;;21.30;46.60;;;;;;5014567;28;20511;-66
2023/12/08 01:57:03;;;;;;;7.73;7.53;;;21.30;46.50;;;;;;5029044;22;20492;-65
2023/12/08 01:59:32;;;;;;;8.40;8.20;;;21.30;46.50;;;;;;5014641;28;20470;-65
2023/12/08 02:01:59;;;;;;;7.70;7.50;;;21.40;46.60;;;;;;5014927;28;20480;-65
2023/12/08 02:04:26;;;;;;;7.20;7.00;;;21.30;46.60;;;;;;5014376;28;20473;-65
2023/12/08 02:06:54;;;;;;;8.20;8.00;;;21.30;46.60;;;;;;5014270;28;20469;-65
2023/12/08 02:09:21;;;;;;;7.60;7.40;;;21.30;46.50;;;;;;5014408;28;20963;-65
2023/12/08 02:11:48;;;;;;;8.17;7.97;;;21.30;46.50;;;;;;5014210;28;20860;-65
2023/12/08 02:14:15;;;;;;;8.10;7.80;;;21.30;46.60;;;;;;5014107;28;20442;-65
2023/12/08 02:16:51;;;;;;;8.03;7.83;;;21.30;46.60;;;;;;5014237;28;20445;-65
2023/12/08 02:19:18;;;;;;;8.50;8.23;;;21.30;46.60;;;;;;5013135;28;20925;-65
2023/12/08 02:21:45;;;;;;;8.60;8.30;;;21.30;46.60;;;;;;5014285;28;20445;-65
2023/12/08 02:24:19;;;;;;;8.00;7.80;;;21.30;46.60;;;;;;5014012;28;20473;-65
2023/12/08 02:26:46;;;;;;;7.50;7.33;;;21.30;46.60;;;;;;5013979;28;20957;-65
2023/12/08 02:29:13;;;;;;;7.90;7.70;;;21.30;46.60;;;;;;5014280;28;20850;-65
2023/12/08 02:31:46;;;;;;;7.90;7.70;;;21.20;46.60;;;;;;5014138;28;20860;-65
2023/12/08 02:34:15;;;;;;;8.00;7.80;;;21.20;46.60;;;;;;5014033;28;20473;-65
2023/12/08 02:36:44;;;;;;;9.37;9.13;;;21.20;46.60;;;;;;5013910;28;20474;-65
2023/12/08 02:39:13;;;;;;;7.80;7.60;;;21.20;46.60;;;;;;5014077;28;20505;-65
2023/12/08 02:41:44;;;;;;;8.00;7.77;;;21.20;46.60;;;;;;5014138;28;20474;-65
2023/12/08 02:44:10;;;;;;;8.83;8.53;;;21.20;46.60;;;;;;5014734;28;20477;-65
2023/12/08 02:46:37;;;;;;;7.63;7.43;;;21.20;46.60;;;;;;5014387;28;20473;-65
2023/12/08 02:49:04;;;;;;;8.60;8.40;;;21.20;46.60;;;;;;5013962;28;20469;-65
2023/12/08 02:51:31;;;;;;;7.37;7.17;;;21.20;46.60;;;;;;5014056;28;20492;-65
2023/12/08 02:53:58;;;;;;;7.20;7.00;;;21.20;46.60;;;;;;5014548;28;20470;-64
2023/12/08 02:56:25;;;;;;;6.97;6.77;;;21.20;46.60;;;;;;5013916;28;20509;-65
2023/12/08 02:58:53;;;;;;;7.70;7.40;;;21.20;46.60;;;;;;5014040;28;20497;-65
2023/12/08 03:01:20;;;;;;;7.10;6.90;;;21.20;46.60;;;;;;5014743;28;20945;-65
2023/12/08 03:03:47;;;;;;;7.80;7.60;;;21.20;46.60;;;;;;5014334;28;20877;-65
2023/12/08 03:06:13;;;;;;;7.37;7.20;;;21.20;46.60;;;;;;5014389;28;20469;-65
2023/12/08 03:08:40;;;;;;;7.40;7.20;;;21.10;46.50;;;;;;5013969;28;20944;-65
2023/12/08 03:11:07;;;;;;;7.20;7.00;;;21.20;46.60;;;;;;5016830;28;20869;-65
2023/12/08 03:13:34;;;;;;;7.70;7.30;;;21.10;46.60;;;;;;5013593;28;20470;-65
2023/12/08 03:16:02;;;;;;;7.60;7.40;;;21.20;46.60;;;;;;5015077;28;20501;-65
2023/12/08 03:18:29;;;;;;;8.00;7.70;;;21.20;46.70;;;;;;5013538;28;20497;-65
2023/12/08 03:20:56;;;;;;;7.60;7.40;;;21.20;46.60;;;;;;5019985;28;20478;-65
2023/12/08 03:23:23;;;;;;;7.63;7.43;;;21.20;46.70;;;;;;5013041;28;20482;-65
2023/12/08 03:25:50;;;;;;;8.00;7.70;;;21.20;46.70;;;;;;5013402;28;20869;-65
2023/12/08 03:28:17;;;;;;;7.40;7.20;;;21.20;46.70;;;;;;5013130;28;20466;-65
2023/12/08 03:30:44;;;;;;;8.00;7.70;;;21.20;46.70;;;;;;5020560;28;20484;-65
2023/12/08 03:33:12;;;;;;;7.63;7.43;;;21.20;46.60;;;;;;5013324;28;20481;-65
2023/12/08 03:35:39;;;;;;;7.63;7.43;;;21.20;46.60;;;;;;4997544;28;20509;-65
2023/12/08 03:38:06;;;;;;;7.50;7.30;;;21.20;46.60;;;;;;5016530;28;20494;-65
2023/12/08 03:40:32;;;;;;;7.30;7.10;;;21.20;46.60;;;;;;5012915;28;20481;-64
2023/12/08 03:42:59;;;;;;;7.80;7.60;;;21.20;46.60;;;;;;5013069;28;20473;-65
2023/12/08 03:45:26;;;;;;;9.50;9.20;;;21.20;46.60;;;;;;5012756;28;20470;-65
2023/12/08 03:47:53;;;;;;;9.27;9.07;;;21.20;46.70;;;;;;5013588;28;20498;-65
2023/12/08 03:50:21;;;;;;;7.97;7.67;;;21.10;46.60;;;;;;5013403;28;20485;-65
2023/12/08 03:52:52;;;;;;;7.53;7.33;;;21.10;46.60;;;;;;5013640;28;20470;-64
2023/12/08 03:55:19;;;;;;;8.30;8.00;;;21.10;46.60;;;;;;5012590;28;20477;-65
2023/12/08 03:57:46;;;;;;;8.30;8.00;;;21.10;46.60;;;;;;5012919;28;20502;-64
2023/12/08 04:00:14;;;;;;;7.93;7.73;;;21.10;46.60;;;;;;5012759;28;20473;-65
2023/12/08 04:02:41;;;;;;;8.10;7.90;;;21.10;46.60;;;;;;5012992;28;20473;-64
2023/12/08 04:05:08;;;;;;;8.50;8.20;;;21.10;46.70;;;;;;5012871;28;20921;-64
2023/12/08 04:07:37;;;;;;;8.13;7.93;;;21.10;46.70;;;;;;5012999;28;20490;-64
2023/12/08 04:10:04;;;;;;;8.17;7.97;;;21.10;46.70;;;;;;5013118;28;20474;-64
2023/12/08 04:12:31;;;;;;;8.50;8.20;;;21.10;46.70;;;;;;5013251;28;20481;-64
2023/12/08 04:14:58;;;;;;;12.57;12.17;;;21.10;46.70;;;;;;5013288;28;20446;-64
2023/12/08 04:17:24;;;;;;;8.60;8.40;;;21.10;46.80;;;;;;5015542;28;20492;-65
2023/12/08 04:19:51;;;;;;;7.93;7.73;;;21.00;46.70;;;;;;5012699;28;20484;-64
2023/12/08 04:22:18;;;;;;;8.50;8.20;;;21.00;46.70;;;;;;5012112;28;20991;-64
2023/12/08 04:24:46;;;;;;;8.60;8.37;;;21.00;46.70;;;;;;5013029;28;20949;-64
2023/12/08 04:27:14;;;;;;;7.67;7.47;;;21.00;46.70;;;;;;5012449;28;20992;-65
2023/12/08 04:29:41;;;;;;;8.63;8.13;;;21.10;46.80;;;;;;5013418;28;20470;-64
2023/12/08 04:32:08;;;;;;;8.27;8.07;;;21.00;46.70;;;;;;5013113;28;20473;-64
2023/12/08 04:34:34;;;;;;;9.00;8.70;;;21.00;46.70;;;;;;5012787;28;20466;-65
2023/12/08 04:37:02;;;;;;;8.60;8.40;;;21.00;46.70;;;;;;5020627;28;20505;-65
2023/12/08 04:39:29;;;;;;;8.53;8.23;;;21.00;46.70;;;;;;5012396;28;20450;-64
2023/12/08 04:41:57;;;;;;;8.30;8.00;;;21.00;46.70;;;;;;5012635;28;20469;-64
2023/12/08 04:44:24;;;;;;;9.03;8.77;;;21.00;46.70;;;;;;5016602;28;20477;-64
2023/12/08 04:46:51;;;;;;;8.67;8.27;;;21.00;46.70;;;;;;5016340;28;20524;-64
2023/12/08 04:49:18;;;;;;;9.63;9.03;;;21.00;46.70;;;;;;5016466;28;20477;-64
2023/12/08 04:51:45;;;;;;;8.40;8.10;;;21.00;46.70;;;;;;5016653;28;20449;-64
2023/12/08 04:54:12;;;;;;;8.60;8.30;;;21.00;46.70;;;;;;5016027;28;20995;-64
2023/12/08 04:56:39;;;;;;;8.63;8.33;;;21.00;46.70;;;;;;5023138;28;20501;-64
2023/12/08 04:59:09;;;;;;;8.33;8.03;;;21.00;46.70;;;;;;5015903;28;20532;-65
2023/12/08 05:01:36;;;;;;;8.30;8.10;;;21.00;46.70;;;;;;5015910;28;20866;-64
2023/12/08 05:04:04;;;;;;;9.37;8.97;;;21.00;46.70;;;;;;5015780;28;20455;-65
2023/12/08 05:06:31;;;;;;;9.27;8.97;;;21.00;46.70;;;;;;5016205;28;20442;-64
2023/12/08 05:08:58;;;;;;;9.33;9.00;;;21.00;46.70;;;;;;5015629;28;20485;-64
2023/12/08 05:11:24;;;;;;;9.60;9.20;;;21.00;46.70;;;;;;5015836;28;20469;-64
2023/12/08 05:13:51;;;;;;;10.10;9.70;;;21.00;46.60;;;;;;5015971;28;20484;-64
2023/12/08 05:16:20;;;;;;;9.97;9.47;;;21.00;46.60;;;;;;5022945;28;20574;-64
2023/12/08 05:18:46;;;;;;;9.20;8.90;;;21.00;46.70;;;;;;5015425;28;20485;-64
2023/12/08 05:21:13;;;;;;;9.17;8.97;;;21.00;46.70;;;;;;5015160;28;20481;-65
2023/12/08 05:23:39;;;;;;;9.10;8.80;;;21.00;46.70;;;;;;5015113;28;20470;-64
2023/12/08 05:26:07;;;;;;;9.63;9.33;;;20.90;46.60;;;;;;5020669;28;21026;-64
2023/12/08 05:28:34;;;;;;;8.87;8.57;;;20.90;46.60;;;;;;5016337;28;20710;-64
2023/12/08 05:31:01;;;;;;;9.00;8.80;;;20.90;46.60;;;;;;5015577;28;20938;-64
2023/12/08 05:33:30;;;;;;;9.63;9.33;;;20.90;46.60;;;;;;5015629;28;20452;-64
2023/12/08 05:35:57;;;;;;;9.67;9.37;;;20.90;46.60;;;;;;5015823;28;20528;-64
2023/12/08 05:38:23;;;;;;;9.50;9.20;;;20.90;46.60;;;;;;5015054;28;20458;-64
2023/12/08 05:40:50;;;;;;;8.57;8.37;;;21.00;46.70;;;;;;5015407;28;20470;-64
2023/12/08 05:43:17;;;;;;;8.47;8.17;;;20.90;46.70;;;;;;5014840;28;20442;-64
2023/12/08 05:45:44;;;;;;;9.13;8.83;;;20.90;46.80;;;;;;5018535;28;20466;-64
2023/12/08 05:48:11;;;;;;;9.40;8.90;;;20.90;46.80;;;;;;5014643;28;21107;-64
2023/12/08 05:50:39;;;;;;;9.60;9.20;;;20.90;46.90;;;;;;5014699;28;20446;-64
2023/12/08 05:53:06;;;;;;;10.50;10.00;;;20.90;47.00;;;;;;5014057;28;20537;-64
2023/12/08 05:55:33;;;;;;;10.07;9.67;;;20.90;47.00;;;;;;5014233;28;20474;-64
2023/12/08 05:58:00;;;;;;;9.50;9.20;;;20.90;47.10;;;;;;5014268;28;21016;-64
2023/12/08 06:00:27;;;;;;;9.90;9.53;;;20.90;47.20;;;;;;5014311;28;20968;-64
2023/12/08 06:02:54;;;;;;;11.97;11.03;;;20.90;47.30;;;;;;5014241;28;20870;-64
2023/12/08 06:05:21;;;;;;;11.77;10.87;;;21.00;47.90;;;;;;5017608;28;20913;-64
2023/12/08 06:07:49;;;;;;;12.40;11.20;;;21.00;49.40;;;;;;5014374;28;20883;-63
2023/12/08 06:10:16;;;;;;;14.30;12.90;;;21.00;50.60;;;;;;5014245;28;20470;-65
2023/12/08 06:12:43;;;;;;;13.77;11.83;;;21.00;52.90;;;;;;5014017;28;20464;-64
2023/12/08 06:15:11;;;;;;;15.03;11.93;;;21.00;54.30;;;;;;5015305;28;20480;-64
2023/12/08 06:17:38;;;;;;;15.87;14.23;;;21.00;55.10;;;;;;5013703;28;20482;-64
2023/12/08 06:20:09;;;;;;;13.40;11.07;;;21.00;53.60;;;;;;5013446;28;20467;-64
2023/12/08 06:22:36;;;;;;;12.70;11.67;;;21.00;52.90;;;;;;5013911;28;20482;-63
2023/12/08 06:25:05;;;;;;;13.80;10.70;;;21.20;52.50;;;;;;5021494;28;20984;-62
2023/12/08 06:27:32;;;;;;;12.90;10.77;;;21.20;51.80;;;;;;5013783;28;20490;-62
2023/12/08 06:29:59;;;;;;;12.47;11.60;;;21.30;52.00;;;;;;5013354;28;21019;-59
2023/12/08 06:32:27;;;;;;;12.23;10.13;;;21.30;52.60;;;;;;5013744;28;20470;-60
2023/12/08 06:34:55;;;;;;;14.10;12.23;;;21.40;52.00;;;;;;5013639;28;20982;-60
2023/12/08 06:37:21;;;;;;;11.27;10.37;;;21.40;52.10;;;;;;5013269;28;20489;-61
2023/12/08 06:39:48;;;;;;;12.23;10.60;;;21.50;52.00;;;;;;5013162;28;20481;-63
2023/12/08 06:42:17;;;;;;;12.45;9.02;;;21.50;51.60;;;;;;5016907;28;20909;-62
2023/12/08 06:44:44;;;;;;;13.20;9.50;;;21.50;52.00;;;;;;5003884;28;20493;-62
2023/12/08 06:47:11;;;;;;;10.82;9.82;;;21.60;52.20;;;;;;5011810;28;20463;-62
2023/12/08 06:49:38;;;;;;;10.40;9.50;;;21.70;52.10;;;;;;5011713;28;20489;-62
2023/12/08 06:52:05;;;;;;;10.40;9.50;;;21.80;51.60;;;;;;5011902;28;20482;-63
2023/12/08 06:54:32;;;;;;;10.35;9.35;;;21.80;51.40;;;;;;5011398;28;20463;-61
2023/12/08 06:56:59;;;;;;;10.75;8.80;;;21.90;51.20;;;;;;5011543;28;20493;-64
2023/12/08 06:59:27;;;;;;;12.83;11.73;;;22.00;51.60;;;;;;5011911;28;20234;-63
2023/12/08 07:01:54;;;;;;;10.43;9.63;;;22.00;50.80;;;;;;5014063;28;20843;-62
2023/12/08 07:04:21;;;;;;;11.70;10.90;;;22.00;50.70;;;;;;5015705;28;20245;-63
2023/12/08 07:06:48;;;;;;;11.40;10.77;;;22.10;50.70;;;;;;5012468;28;20496;-62
2023/12/08 07:09:15;;;;;;;12.37;11.57;;;22.00;50.50;;;;;;5012622;28;20478;-64
2023/12/08 07:11:42;;;;;;;10.25;8.70;;;22.10;50.70;;;;;;5011757;28;20822;-60
2023/12/08 07:14:09;;;;;;;12.30;11.50;;;22.00;50.80;;;;;;5013172;28;20253;-62
2023/12/08 07:16:37;;;;;;;13.33;12.33;;;22.00;50.80;;;;;;5012666;28;21045;-62
2023/12/08 07:19:04;;;;;;;10.45;8.93;;;22.00;50.60;;;;;;5011975;28;20462;-65
2023/12/08 07:21:31;;;;;;;11.20;10.40;;;22.00;50.70;;;;;;5012783;28;20235;-63
2023/12/08 07:23:58;;;;;;;12.37;9.83;;;22.20;50.50;;;;;;5016167;28;20450;-64
2023/12/08 07:26:25;;;;;;;9.60;8.90;;;22.20;50.40;;;;;;5012222;28;20431;-64
2023/12/08 07:28:52;;;;;;;10.57;9.87;;;22.20;50.20;;;;;;5012486;28;20453;-63
2023/12/08 07:31:19;;;;;;;11.60;10.60;;;22.20;50.30;;;;;;5012522;28;20473;-63
2023/12/08 07:33:48;;;;;;;10.52;9.82;;;22.20;50.10;;;;;;5011572;28;20466;-64
2023/12/08 07:36:14;;;;;;;11.37;10.77;;;22.20;50.30;;;;;;5008315;28;20301;-66
2023/12/08 07:38:41;;;;;;;11.60;11.10;;;22.20;49.90;;;;;;5012342;28;21193;-63
2023/12/08 07:41:08;;;;;;;11.03;10.13;;;22.20;49.50;;;;;;5011899;28;20474;-62
2023/12/08 07:43:36;;;;;;;11.17;10.47;;;22.20;48.80;;;;;;5018656;28;20469;-63
2023/12/08 07:46:03;;;;;;;11.70;10.87;;;22.20;49.20;;;;;;5012053;28;20941;-61
2023/12/08 07:48:30;;;;;;;10.90;10.40;;;22.20;49.20;;;;;;5011969;28;20469;-63
2023/12/08 07:50:58;;;;;;;13.60;12.70;;;22.30;49.30;;;;;;5012152;28;20470;-65
2023/12/08 07:53:25;;;;;;;12.30;11.73;;;22.30;49.40;;;;;;5012443;28;20976;-66
2023/12/08 07:55:52;;;;;;;10.80;10.20;;;22.20;49.30;;;;;;5010913;28;20973;-66
2023/12/08 07:58:19;;;;;;;10.30;9.40;;;22.00;49.30;;;;;;5027310;22;20898;-66
2023/12/08 08:00:47;;;;;;;10.20;9.70;;;21.90;49.40;;;;;;5004143;28;20995;-67
2023/12/08 08:03:14;;;;;;;9.97;9.40;;;21.90;49.40;;;;;;5011883;28;20999;-67
2023/12/08 08:05:41;;;;;;;9.87;9.40;;;21.80;49.40;;;;;;5011568;28;20521;-67
2023/12/08 08:08:09;;;;;;;10.67;9.93;;;21.80;49.50;;;;;;5005789;28;20491;-66
2023/12/08 08:10:36;;;;;;;10.13;9.63;;;21.70;49.40;;;;;;5002369;28;20903;-67
2023/12/08 08:13:03;;;;;;;11.63;11.03;;;21.70;49.40;;;;;;5003833;28;20473;-67
2023/12/08 08:15:30;;;;;;;12.00;11.23;;;21.60;49.20;;;;;;5002512;28;20481;-67
2023/12/08 08:17:57;;;;;;;9.60;9.30;;;21.60;49.20;;;;;;4999357;28;20513;-67
2023/12/08 08:20:24;;;;;;;10.80;10.10;;;21.60;49.10;;;;;;5000586;28;20934;-67
2023/12/08 08:22:51;;;;;;;9.93;9.33;;;21.60;49.10;;;;;;5003798;28;20479;-67
2023/12/08 08:25:19;;;;;;;10.03;9.50;;;21.50;48.90;;;;;;5003712;28;20442;-67
2023/12/08 08:27:46;;;;;;;10.13;9.70;;;21.50;48.90;;;;;;5000201;28;20458;-67
2023/12/08 08:30:13;;;;;;;9.93;9.53;;;21.50;48.80;;;;;;5000420;28;20877;-67
2023/12/08 08:32:40;;;;;;;9.97;9.53;;;21.50;48.80;;;;;;5002528;28;20475;-67
2023/12/08 08:35:08;;;;;;;9.10;8.67;;;21.50;48.70;;;;;;5003555;28;20873;-67
2023/12/08 08:37:35;;;;;;;10.20;9.60;;;21.40;48.60;;;;;;5001644;28;20887;-67
2023/12/08 08:40:03;;;;;;;10.10;9.60;;;21.40;48.60;;;;;;5000201;28;20588;-66
2023/12/08 08:42:31;;;;;;;10.90;10.00;;;21.40;48.60;;;;;;5000987;28;20453;-67
2023/12/08 08:44:58;;;;;;;12.07;11.33;;;21.40;48.60;;;;;;5003511;28;20474;-67
2023/12/08 08:47:25;;;;;;;10.10;9.60;;;21.30;48.50;;;;;;5002880;28;20476;-67
2023/12/08 08:49:52;;;;;;;10.53;10.03;;;21.30;48.50;;;;;;5000015;28;20471;-67
2023/12/08 08:52:19;;;;;;;10.27;9.87;;;21.30;48.40;;;;;;5000236;28;20482;-66
2023/12/08 08:54:47;;;;;;;10.60;10.10;;;21.30;48.40;;;;;;5003166;28;20521;-67
2023/12/08 08:57:14;;;;;;;10.90;10.40;;;21.30;48.40;;;;;;5003256;28;21061;-67
2023/12/08 08:59:42;;;;;;;10.03;9.70;;;21.30;48.30;;;;;;5000974;28;21003;-67
2023/12/08 09:02:09;;;;;;;10.77;10.30;;;21.30;48.30;;;;;;4999877;28;20501;-67
2023/12/08 09:04:36;;;;;;;11.20;10.70;;;21.30;48.20;;;;;;5001732;28;20442;-66
2023/12/08 09:07:03;;;;;;;12.23;11.73;;;21.30;48.20;;;;;;5003483;28;21017;-67
2023/12/08 09:09:30;;;;;;;10.60;10.20;;;21.30;48.10;;;;;;5002128;28;20492;-67
2023/12/08 09:11:57;;;;;;;12.20;11.70;;;21.30;48.10;;;;;;4999703;28;20471;-67
2023/12/08 09:14:24;;;;;;;11.00;10.60;;;21.30;48.10;;;;;;4999836;28;20938;-66
2023/12/08 09:16:52;;;;;;;11.60;11.20;;;21.30;48.00;;;;;;5003163;28;20505;-66
2023/12/08 09:19:19;;;;;;;12.10;11.40;;;21.30;48.00;;;;;;5003457;28;20490;-66
2023/12/08 09:21:46;;;;;;;11.57;11.00;;;21.30;48.00;;;;;;5000049;28;20457;-66
2023/12/08 09:24:13;;;;;;;10.80;10.40;;;21.30;48.00;;;;;;4999906;28;20471;-67
2023/12/08 09:26:40;;;;;;;10.70;10.30;;;21.20;47.90;;;;;;5001921;28;20471;-67
2023/12/08 09:29:07;;;;;;;11.50;11.00;;;21.20;47.90;;;;;;5005160;28;20824;-67
2023/12/08 09:31:33;;;;;;;11.27;10.63;;;21.20;47.90;;;;;;5005305;28;20497;-67
2023/12/08 09:34:02;;;;;;;10.90;10.50;;;21.20;47.90;;;;;;5003447;28;20572;-66
2023/12/08 09:36:29;;;;;;;11.03;10.67;;;21.20;47.90;;;;;;5003997;28;20474;-66
2023/12/08 09:38:56;;;;;;;10.60;10.30;;;21.20;47.80;;;;;;5006423;28;20505;-67
2023/12/08 09:41:23;;;;;;;10.47;9.97;;;21.20;47.80;;;;;;5006502;28;20473;-67
2023/12/08 09:43:57;;;;;;;11.23;10.87;;;21.10;47.70;;;;;;4995302;28;20463;-66
2023/12/08 09:46:25;;;;;;;10.90;10.50;;;21.10;47.70;;;;;;5003188;28;20530;-67
2023/12/08 09:48:58;;;;;;;11.37;11.07;;;21.10;47.80;;;;;;4995036;28;20490;-67
2023/12/08 09:51:27;;;;;;;10.30;10.00;;;21.10;47.70;;;;;;5002842;28;20537;-67
2023/12/08 09:53:55;;;;;;;11.27;10.80;;;21.10;47.70;;;;;;5006534;28;20521;-67
2023/12/08 09:56:24;;;;;;;11.20;10.50;;;21.10;47.70;;;;;;5006338;28;20457;-66
2023/12/08 09:58:52;;;;;;;10.10;9.80;;;21.10;47.70;;;;;;4994733;28;20483;-67
2023/12/08 10:01:20;;;;;;;11.00;10.60;;;21.10;47.70;;;;;;5002821;28;20497;-67
2023/12/08 10:03:47;;;;;;;10.70;10.30;;;21.00;47.60;;;;;;5005800;28;21000;-67
2023/12/08 10:06:14;;;;;;;10.10;9.80;;;21.00;47.60;;;;;;5006146;28;20477;-67
2023/12/08 10:08:43;;;;;;;10.30;10.00;;;21.00;47.60;;;;;;5003711;28;20504;-67
2023/12/08 10:11:09;;;;;;;12.40;11.70;;;21.00;47.60;;;;;;5002604;28;20518;-67
2023/12/08 10:13:36;;;;;;;10.97;10.57;;;21.00;47.60;;;;;;5004189;28;20471;-67
2023/12/08 10:16:04;;;;;;;10.63;10.33;;;20.90;47.40;;;;;;5005863;28;20481;-67
2023/12/08 10:18:30;;;;;;;11.07;10.57;;;21.00;47.60;;;;;;5004950;28;20550;-67
2023/12/08 10:21:13;;;;;;;10.27;9.97;;;20.90;47.40;;;;;;5002447;28;20471;-67
2023/12/08 10:23:42;;;;;;;10.80;10.40;;;20.90;47.40;;;;;;5004444;28;20439;-67
2023/12/08 10:26:11;;;;;;;11.20;10.70;;;21.00;47.50;;;;;;5005431;28;20884;-67
2023/12/08 10:28:38;;;;;;;10.40;10.10;;;21.00;47.40;;;;;;5003774;28;20546;-67
2023/12/08 10:31:05;;;;;;;10.77;10.47;;;21.00;47.40;;;;;;5002515;28;20467;-67
2023/12/08 10:33:32;;;;;;;11.63;11.13;;;21.00;47.40;;;;;;5003271;28;20543;-67
2023/12/08 10:35:59;;;;;;;11.40;11.00;;;21.00;47.40;;;;;;5005402;28;20473;-67
2023/12/08 10:38:26;;;;;;;10.70;10.40;;;21.00;47.40;;;;;;5005265;28;20477;-67
2023/12/08 10:40:55;;;;;;;10.30;10.00;;;21.00;47.40;;;;;;4993506;28;20973;-67
2023/12/08 10:43:25;;;;;;;10.63;10.33;;;21.00;47.30;;;;;;5002077;28;20443;-66
2023/12/08 10:45:52;;;;;;;10.87;10.57;;;21.00;47.30;;;;;;4993931;28;20801;-67
2023/12/08 10:48:20;;;;;;;9.97;9.67;;;21.00;47.40;;;;;;5002021;28;20495;-67
2023/12/08 10:50:49;;;;;;;10.97;10.47;;;21.00;47.30;;;;;;5004389;28;20450;-67
2023/12/08 10:53:17;;;;;;;10.90;10.60;;;21.00;47.30;;;;;;5005176;28;20438;-67
2023/12/08 10:55:45;;;;;;;10.33;10.03;;;21.00;47.30;;;;;;5002698;28;20817;-66
2023/12/08 10:58:16;;;;;;;10.33;10.03;;;20.90;47.20;;;;;;5001315;28;20986;-67
2023/12/08 11:00:43;;;;;;;11.17;10.77;;;21.00;47.30;;;;;;5003862;28;20922;-67
2023/12/08 11:03:12;;;;;;;10.60;10.30;;;20.90;47.20;;;;;;5004963;28;20473;-66
2023/12/08 11:05:47;;;;;;;10.43;10.13;;;20.90;47.20;;;;;;5003197;28;20446;-66
2023/12/08 11:08:18;;;;;;;10.70;10.40;;;20.90;47.20;;;;;;5001589;28;20976;-67
2023/12/08 11:10:47;;;;;;;10.60;10.40;;;20.90;47.20;;;;;;5004034;28;20471;-67
2023/12/08 11:13:25;;;;;;;10.60;10.20;;;20.90;47.20;;;;;;5004745;28;20481;-67
2023/12/08 11:16:14;;;;;;;10.70;10.40;;;20.90;47.10;;;;;;5001335;28;20442;-66
2023/12/08 11:18:42;;;;;;;10.23;9.93;;;20.90;47.20;;;;;;5002901;28;20940;-67
2023/12/08 11:21:11;;;;;;;10.80;10.30;;;20.90;47.20;;;;;;5004567;28;20869;-67
2023/12/08 11:23:39;;;;;;;10.73;10.43;;;20.80;47.10;;;;;;5003450;28;21163;-67
2023/12/08 11:26:16;;;;;;;11.03;10.70;;;20.80;47.10;;;;;;5001290;28;20439;-67
2023/12/08 11:28:56;;;;;;;10.73;10.47;;;20.80;47.10;;;;;;5002984;28;20490;-66
2023/12/08 11:31:27;;;;;;;10.47;10.10;;;20.80;47.10;;;;;;5004442;28;20473;-67
2023/12/08 11:33:59;;;;;;;10.37;10.07;;;20.80;47.10;;;;;;4993237;28;20458;-66
2023/12/08 11:36:28;;;;;;;11.10;10.80;;;20.80;47.10;;;;;;5001343;28;20454;-66
2023/12/08 11:38:55;;;;;;;10.57;10.23;;;20.80;47.10;;;;;;5000764;28;20478;-67
2023/12/08 11:41:24;;;;;;;10.43;10.10;;;20.80;47.10;;;;;;5000495;28;20481;-66
2023/12/08 11:43:53;;;;;;;10.70;10.40;;;20.80;47.00;;;;;;5003735;28;20825;-66
2023/12/08 11:46:21;;;;;;;10.47;10.10;;;20.80;47.00;;;;;;5004271;28;20952;-66
2023/12/08 11:48:52;;;;;;;11.20;10.87;;;20.80;47.00;;;;;;5001838;28;20462;-66
2023/12/08 11:51:19;;;;;;;10.60;10.30;;;20.80;47.00;;;;;;5000711;28;20807;-66
2023/12/08 11:53:54;;;;;;;10.73;10.43;;;20.80;47.00;;;;;;5002838;28;20485;-66
2023/12/08 11:56:42;;;;;;;10.90;10.57;;;20.80;47.00;;;;;;5003943;28;20525;-66
2023/12/08 11:59:15;;;;;;;10.40;10.10;;;20.90;47.00;;;;;;4994302;28;20889;-66
2023/12/08 12:01:42;;;;;;;10.47;10.17;;;20.80;46.90;;;;;;5002107;28;20443;-66
2023/12/08 12:04:10;;;;;;;9.20;9.00;;;20.90;47.00;;;;;;5004036;28;20477;-66
2023/12/08 12:06:37;;;;;;;9.80;9.50;;;20.80;46.90;;;;;;5003014;28;20927;-66
2023/12/08 12:09:06;;;;;;;9.80;9.50;;;20.80;46.90;;;;;;5000483;28;20459;-67
2023/12/08 12:11:36;;;;;;;10.20;9.90;;;20.90;47.00;;;;;;5000416;28;20946;-66
2023/12/08 12:14:07;;;;;;;9.90;9.60;;;20.80;46.90;;;;;;5004028;28;20450;-66
2023/12/08 12:16:35;;;;;;;10.50;10.20;;;20.80;46.90;;;;;;5003204;28;20960;-67
2023/12/08 12:19:04;;;;;;;11.60;11.30;;;20.80;46.90;;;;;;5000254;28;20569;-67
2023/12/08 12:21:30;;;;;;;10.53;10.23;;;20.80;46.90;;;;;;5000301;28;20506;-67
2023/12/08 12:23:57;;;;;;;10.60;10.30;;;20.80;46.90;;;;;;4992596;28;20496;-66
2023/12/08 12:26:24;;;;;;;10.50;10.10;;;20.80;46.90;;;;;;5000089;28;20883;-66
2023/12/08 12:28:51;;;;;;;10.07;9.77;;;20.80;46.90;;;;;;5002946;28;20462;-66
2023/12/08 12:31:18;;;;;;;10.50;10.20;;;20.80;46.90;;;;;;5003682;28;20473;-66
2023/12/08 12:33:46;;;;;;;10.70;10.40;;;20.80;46.90;;;;;;5001702;28;20488;-67
2023/12/08 12:36:13;;;;;;;10.73;10.43;;;20.80;46.90;;;;;;5000128;28;20482;-67
2023/12/08 12:38:42;;;;;;;10.90;10.60;;;20.80;46.90;;;;;;5001130;28;20492;-66
2023/12/08 12:41:23;;;;;;;10.30;10.10;;;20.70;46.80;;;;;;5003436;28;20446;-66